createdAt,value
2022-08-26T00:01:07.782Z,18.90
2022-08-26T00:03:38.391Z,19.40
2022-08-26T00:06:08.512Z,19.70
2022-08-26T00:11:08.744Z,20.30
2022-08-26T00:18:41.373Z,19.52
2022-08-26T00:21:11.589Z,19.25
2022-08-26T00:23:41.506Z,19.92
2022-08-26T00:26:11.146Z,18.27
2022-08-26T00:28:41.378Z,18.45
2022-08-26T00:31:12.357Z,19.60
2022-08-26T00:33:43.498Z,18.52
2022-08-26T00:36:20.066Z,20.10
2022-08-26T00:38:50.777Z,19.55
2022-08-26T00:43:50.261Z,20.13
2022-08-26T00:46:25.582Z,19.80
2022-08-26T00:49:01.594Z,17.92
2022-08-26T00:51:32.061Z,18.40
2022-08-26T00:54:05.552Z,21.58
2022-08-26T00:56:39.843Z,17.98
2022-08-26T00:59:13.293Z,17.48
2022-08-26T01:01:46.631Z,18.85
2022-08-26T01:04:20.938Z,17.08
2022-08-26T01:06:52.558Z,17.90
2022-08-26T01:09:23.576Z,20.00
2022-08-26T01:11:55.933Z,18.80
2022-08-26T01:14:28.565Z,19.95
2022-08-26T01:17:00.025Z,19.65
2022-08-26T01:19:33.639Z,20.67
2022-08-26T01:22:09.092Z,19.73
2022-08-26T01:24:40.865Z,19.63
2022-08-26T01:27:15.014Z,18.80
2022-08-26T01:29:46.273Z,22.02
2022-08-26T01:32:21.281Z,20.48
2022-08-26T01:34:53.229Z,18.75
2022-08-26T01:37:25.549Z,19.10
2022-08-26T01:39:58.102Z,17.15
2022-08-26T01:42:30.182Z,18.92
2022-08-26T01:45:05.462Z,20.42
2022-08-26T01:47:39.749Z,21.30
2022-08-26T01:50:15.729Z,17.30
2022-08-26T01:52:59.190Z,18.05
2022-08-26T01:55:32.936Z,19.33
2022-08-26T01:58:07.821Z,19.20
2022-08-26T02:00:37.762Z,20.02
2022-08-26T02:03:22.675Z,17.70
2022-08-26T02:05:55.017Z,19.45
2022-08-26T02:08:31.329Z,18.58
2022-08-26T02:11:04.360Z,19.75
2022-08-26T02:13:36.861Z,17.58
2022-08-26T02:16:07.894Z,17.30
2022-08-26T02:18:41.702Z,19.77
2022-08-26T02:21:14.289Z,19.67
2022-08-26T02:23:45.528Z,18.48
2022-08-26T02:28:55.042Z,18.45
2022-08-26T02:31:24.466Z,18.70
2022-08-26T02:33:54.565Z,20.20
2022-08-26T02:36:28.626Z,21.42
2022-08-26T02:38:59.410Z,22.17
2022-08-26T02:41:30.426Z,21.33
2022-08-26T02:44:03.136Z,22.30
2022-08-26T02:46:33.038Z,20.83
2022-08-26T02:49:04.161Z,20.77
2022-08-26T02:51:33.929Z,22.52
2022-08-26T02:54:04.288Z,23.45
2022-08-26T02:56:36.957Z,21.80
2022-08-26T02:59:07.157Z,23.35
2022-08-26T03:01:37.921Z,22.53
2022-08-26T03:04:10.241Z,25.52
2022-08-26T03:06:40.624Z,22.45
2022-08-26T03:09:11.178Z,23.23
2022-08-26T03:11:49.783Z,23.20
2022-08-26T03:14:20.021Z,24.42
2022-08-26T03:16:52.185Z,24.52
2022-08-26T03:19:23.747Z,23.40
2022-08-26T03:21:53.577Z,22.95
2022-08-26T03:24:28.211Z,25.13
2022-08-26T03:29:49.582Z,23.15
2022-08-26T03:32:20.988Z,24.17
2022-08-26T03:34:51.156Z,24.40
2022-08-26T03:37:22.041Z,24.70
2022-08-26T03:39:52.207Z,24.60
2022-08-26T03:42:24.102Z,27.25
2022-08-26T03:44:54.340Z,25.20
2022-08-26T03:47:23.869Z,24.15
2022-08-26T03:49:53.221Z,26.00
2022-08-26T03:52:23.785Z,23.77
2022-08-26T03:54:53.178Z,25.17
2022-08-26T03:57:24.517Z,26.27
2022-08-26T03:59:54.590Z,25.35
2022-08-26T04:02:24.527Z,25.35
2022-08-26T04:04:55.349Z,26.52
2022-08-26T04:07:25.928Z,25.85
2022-08-26T04:09:57.475Z,26.55
2022-08-26T04:12:28.522Z,24.02
2022-08-26T04:14:59.826Z,27.60
2022-08-26T04:17:30.049Z,24.83
2022-08-26T04:20:00.396Z,26.02
2022-08-26T04:22:30.005Z,24.27
2022-08-26T04:24:59.610Z,24.60
2022-08-26T04:27:31.432Z,25.27
2022-08-26T04:30:00.822Z,26.23
2022-08-26T04:32:31.276Z,25.70
2022-08-26T04:35:01.012Z,22.83
2022-08-26T04:37:34.029Z,26.58
2022-08-26T04:40:03.579Z,27.05
2022-08-26T04:42:37.240Z,27.13
2022-08-26T04:45:15.571Z,27.23
2022-08-26T04:48:05.210Z,26.25
2022-08-26T04:50:34.989Z,25.73
2022-08-26T04:53:04.968Z,27.63
2022-08-26T04:55:38.397Z,26.55
2022-08-26T04:58:11.006Z,25.42
2022-08-26T05:00:41.078Z,28.23
2022-08-26T05:03:10.797Z,26.93
2022-08-26T05:05:41.936Z,27.23
2022-08-26T05:08:12.830Z,28.10
2022-08-26T05:10:44.022Z,27.83
2022-08-26T05:13:17.342Z,29.00
2022-08-26T05:15:50.705Z,26.48
2022-08-26T05:20:54.700Z,25.42
2022-08-26T05:23:26.129Z,24.35
2022-08-26T05:25:59.237Z,22.60
2022-08-26T05:28:32.332Z,23.75
2022-08-26T05:31:02.183Z,21.48
2022-08-26T05:33:32.856Z,24.50
2022-08-26T05:36:09.748Z,24.50
2022-08-26T05:38:41.408Z,24.15
2022-08-26T05:41:18.802Z,21.95
2022-08-26T05:43:50.546Z,22.17
2022-08-26T05:46:20.606Z,23.70
2022-08-26T05:51:25.863Z,27.33
2022-08-26T05:53:56.914Z,26.30
2022-08-26T05:56:28.138Z,28.67
2022-08-26T05:59:02.886Z,28.77
2022-08-26T06:01:36.004Z,31.15
2022-08-26T06:04:06.178Z,28.90
2022-08-26T06:06:45.056Z,30.05
2022-08-26T06:09:14.807Z,57.85
2022-08-26T06:11:48.108Z,32.20
2022-08-26T06:14:19.909Z,27.95
2022-08-26T06:16:50.160Z,27.92
2022-08-26T06:19:20.487Z,28.92
2022-08-26T06:21:54.918Z,26.77
2022-08-26T06:24:42.157Z,28.35
2022-08-26T06:27:14.011Z,25.65
2022-08-26T06:29:46.475Z,28.38
2022-08-26T06:32:16.186Z,25.80
2022-08-26T06:34:46.442Z,24.08
2022-08-26T06:37:17.994Z,28.38
2022-08-26T06:39:48.683Z,25.95
2022-08-26T06:42:20.858Z,24.92
2022-08-26T06:49:51.101Z,23.88
2022-08-26T06:52:24.413Z,20.30
2022-08-26T06:54:54.238Z,21.42
2022-08-26T06:57:24.615Z,21.23
2022-08-26T06:59:55.409Z,19.00
2022-08-26T07:02:25.399Z,20.10
2022-08-26T07:04:58.306Z,19.92
2022-08-26T07:09:57.357Z,25.02
2022-08-26T07:12:26.854Z,25.77
2022-08-26T07:14:59.020Z,25.50
2022-08-26T07:17:28.584Z,27.33
2022-08-26T07:19:58.790Z,26.73
2022-08-26T07:22:28.839Z,24.85
2022-08-26T07:24:58.838Z,25.33
2022-08-26T07:27:29.143Z,23.25
2022-08-26T07:30:00.290Z,23.05
2022-08-26T07:32:32.780Z,22.15
2022-08-26T07:35:02.517Z,22.90
2022-08-26T07:37:35.511Z,20.23
2022-08-26T07:40:10.576Z,19.95
2022-08-26T07:42:41.566Z,21.80
2022-08-26T07:45:13.790Z,22.05
2022-08-26T07:47:43.945Z,20.88
2022-08-26T07:50:14.434Z,19.33
2022-08-26T07:52:45.074Z,20.58
2022-08-26T07:55:15.064Z,19.48
2022-08-26T07:57:45.410Z,19.38
2022-08-26T08:00:18.633Z,19.75
2022-08-26T08:02:49.086Z,21.33
2022-08-26T08:05:22.419Z,18.10
2022-08-26T08:08:17.300Z,19.98
2022-08-26T08:10:48.778Z,20.65
2022-08-26T08:13:18.640Z,21.20
2022-08-26T08:15:51.436Z,20.52
2022-08-26T08:18:21.216Z,19.73
2022-08-26T08:20:59.013Z,19.30
2022-08-26T08:23:28.749Z,19.00
2022-08-26T08:26:03.142Z,17.85
2022-08-26T08:28:32.536Z,18.60
2022-08-26T08:31:04.206Z,15.80
2022-08-26T08:33:35.808Z,11.73
2022-08-26T08:36:09.352Z,11.50
2022-08-26T08:38:38.957Z,10.75
2022-08-26T08:43:48.293Z,11.93
2022-08-26T08:46:20.634Z,10.50
2022-08-26T08:48:57.015Z,11.77
2022-08-26T08:51:35.554Z,10.93
2022-08-26T08:54:06.106Z,11.70
2022-08-26T08:56:40.786Z,11.32
2022-08-26T08:59:16.670Z,10.25
2022-08-26T09:01:57.593Z,10.90
2022-08-26T09:04:49.552Z,9.55
2022-08-26T09:07:25.349Z,10.68
2022-08-26T09:09:59.635Z,8.98
2022-08-26T09:12:32.848Z,9.60
2022-08-26T09:15:06.143Z,9.05
2022-08-26T09:17:48.652Z,9.55
2022-08-26T09:20:24.289Z,8.55
2022-08-26T09:22:54.453Z,9.40
2022-08-26T09:25:23.856Z,7.38
2022-08-26T09:27:55.030Z,9.27
2022-08-26T09:30:30.045Z,8.75
2022-08-26T09:33:03.907Z,11.48
2022-08-26T09:35:43.266Z,7.90
2022-08-26T09:38:26.872Z,6.53
2022-08-26T09:40:59.668Z,6.85
2022-08-26T09:43:29.996Z,7.57
2022-08-26T09:46:14.958Z,6.25
2022-08-26T09:48:46.033Z,5.28
2022-08-26T09:51:31.815Z,5.32
2022-08-26T09:54:02.926Z,5.45
2022-08-26T09:56:37.730Z,6.10
2022-08-26T09:59:12.893Z,7.00
2022-08-26T10:01:45.207Z,5.72
2022-08-26T10:04:23.977Z,6.15
2022-08-26T10:07:00.326Z,7.15
2022-08-26T10:09:31.485Z,6.75
2022-08-26T10:12:06.046Z,6.93
2022-08-26T10:14:40.108Z,8.00
2022-08-26T10:17:16.591Z,6.43
2022-08-26T10:19:56.615Z,7.18
2022-08-26T10:22:33.700Z,5.60
2022-08-26T10:25:06.759Z,6.82
2022-08-26T10:27:48.458Z,5.88
2022-08-26T10:30:25.216Z,6.65
2022-08-26T10:32:59.397Z,6.40
2022-08-26T10:35:32.424Z,7.07
2022-08-26T10:38:06.104Z,5.82
2022-08-26T10:40:49.126Z,6.55
2022-08-26T10:43:25.707Z,5.97
2022-08-26T10:45:58.704Z,5.80
2022-08-26T10:48:36.718Z,5.05
2022-08-26T10:51:08.722Z,4.68
2022-08-26T10:53:45.876Z,5.95
2022-08-26T10:56:31.358Z,6.78
2022-08-26T10:59:12.557Z,5.47
2022-08-26T11:01:51.023Z,5.05
2022-08-26T11:04:37.928Z,4.32
2022-08-26T11:07:40.728Z,4.80
2022-08-26T11:10:32.813Z,4.32
2022-08-26T11:13:04.707Z,4.95
2022-08-26T11:16:01.801Z,4.00
2022-08-26T11:18:47.318Z,3.90
2022-08-26T11:21:50.721Z,3.53
2022-08-26T11:24:44.404Z,3.45
2022-08-26T11:27:55.760Z,3.88
2022-08-26T11:30:44.903Z,3.65
2022-08-26T11:34:03.503Z,3.25
2022-08-26T11:36:57.749Z,3.53
2022-08-26T11:39:36.737Z,4.65
2022-08-26T11:42:23.792Z,3.72
2022-08-26T11:44:59.882Z,4.00
2022-08-26T11:47:33.384Z,2.97
2022-08-26T11:50:15.545Z,3.80
2022-08-26T11:52:59.432Z,4.28
2022-08-26T11:55:30.317Z,3.50
2022-08-26T11:58:04.826Z,4.55
2022-08-26T12:00:50.341Z,3.13
2022-08-26T12:03:23.041Z,3.28
2022-08-26T12:05:54.841Z,2.72
2022-08-26T12:08:31.438Z,2.63
2022-08-26T12:11:07.280Z,3.00
2022-08-26T12:13:39.440Z,3.00
2022-08-26T12:16:09.470Z,2.90
2022-08-26T12:18:40.730Z,2.92
2022-08-26T12:21:22.385Z,2.35
2022-08-26T12:23:56.288Z,3.10
2022-08-26T12:26:30.036Z,3.17
2022-08-26T12:29:10.815Z,2.55
2022-08-26T12:31:50.089Z,3.25
2022-08-26T12:34:20.256Z,2.70
2022-08-26T12:36:52.146Z,2.78
2022-08-26T12:39:29.974Z,2.88
2022-08-26T12:42:01.535Z,3.10
2022-08-26T12:44:53.883Z,3.33
2022-08-26T12:47:39.062Z,3.03
2022-08-26T12:50:19.875Z,3.65
2022-08-26T12:53:01.050Z,3.47
2022-08-26T12:55:40.614Z,2.80
2022-08-26T12:58:20.649Z,2.90
2022-08-26T13:00:52.724Z,3.50
2022-08-26T13:03:46.288Z,2.22
2022-08-26T13:06:19.364Z,3.03
2022-08-26T13:08:51.717Z,3.58
2022-08-26T13:11:23.399Z,2.35
2022-08-26T13:13:55.140Z,2.80
2022-08-26T13:16:28.212Z,3.63
2022-08-26T13:19:00.897Z,4.63
2022-08-26T13:21:37.572Z,2.53
2022-08-26T13:24:11.996Z,3.03
2022-08-26T13:26:41.453Z,3.67
2022-08-26T13:29:11.596Z,3.33
2022-08-26T13:31:44.996Z,2.90
2022-08-26T13:34:18.429Z,3.53
2022-08-26T13:36:48.165Z,4.50
2022-08-26T13:39:18.708Z,2.97
2022-08-26T13:41:48.231Z,3.50
2022-08-26T13:44:17.846Z,3.72
2022-08-26T13:46:49.386Z,3.88
2022-08-26T13:49:18.869Z,3.75
2022-08-26T13:51:49.055Z,3.95
2022-08-26T13:54:18.604Z,3.92
2022-08-26T13:56:48.484Z,4.15
2022-08-26T13:59:18.197Z,4.38
2022-08-26T14:01:49.263Z,4.43
2022-08-26T14:04:27.183Z,4.20
2022-08-26T14:06:56.978Z,4.38
2022-08-26T14:09:27.260Z,3.58
2022-08-26T14:11:58.108Z,3.72
2022-08-26T14:14:28.921Z,3.63
2022-08-26T14:17:00.515Z,3.30
2022-08-26T14:19:31.512Z,2.88
2022-08-26T14:22:02.966Z,3.60
2022-08-26T14:24:33.072Z,3.58
2022-08-26T14:27:02.545Z,3.60
2022-08-26T14:29:31.913Z,3.25
2022-08-26T14:32:07.159Z,3.33
2022-08-26T14:34:36.881Z,3.10
2022-08-26T14:37:07.784Z,3.88
2022-08-26T14:39:38.585Z,3.13
2022-08-26T14:42:10.310Z,3.25
2022-08-26T14:44:40.263Z,3.17
2022-08-26T14:47:11.785Z,2.63
2022-08-26T14:49:41.125Z,3.00
2022-08-26T14:52:11.264Z,3.30
2022-08-26T14:57:10.825Z,3.78
2022-08-26T14:59:43.596Z,3.88
2022-08-26T15:02:32.633Z,3.28
2022-08-26T15:05:04.294Z,3.58
2022-08-26T15:07:33.805Z,3.70
2022-08-26T15:10:03.814Z,3.55
2022-08-26T15:12:34.214Z,4.00
2022-08-26T15:15:03.560Z,3.53
2022-08-26T15:17:34.520Z,3.58
2022-08-26T15:20:06.023Z,3.55
2022-08-26T15:22:35.708Z,4.03
2022-08-26T15:25:06.793Z,3.42
2022-08-26T15:27:36.479Z,3.67
2022-08-26T15:30:08.533Z,4.20
2022-08-26T15:32:39.757Z,3.22
2022-08-26T15:35:10.343Z,3.60
2022-08-26T15:37:40.409Z,3.72
2022-08-26T15:40:11.621Z,3.10
2022-08-26T15:42:41.397Z,3.17
2022-08-26T15:45:12.125Z,3.70
2022-08-26T15:48:01.595Z,2.72
2022-08-26T15:50:33.145Z,3.20
2022-08-26T15:53:02.656Z,2.78
2022-08-26T15:58:02.089Z,2.85
2022-08-26T16:00:31.601Z,3.17
2022-08-26T16:03:02.409Z,3.08
2022-08-26T16:05:32.529Z,3.53
2022-08-26T16:10:32.520Z,3.03
2022-08-26T16:13:02.533Z,3.55
2022-08-26T16:18:06.826Z,3.38
2022-08-26T16:20:38.578Z,4.15
2022-08-26T16:23:08.932Z,3.25
2022-08-26T16:25:40.345Z,3.65
2022-08-26T16:28:11.653Z,4.18
2022-08-26T16:30:41.849Z,4.30
2022-08-26T16:33:13.973Z,3.90
2022-08-26T16:38:21.650Z,3.28
2022-08-26T16:40:52.630Z,3.28
2022-08-26T16:43:22.426Z,3.30
2022-08-26T16:45:51.746Z,3.63
2022-08-26T16:48:23.653Z,3.58
2022-08-26T16:50:55.760Z,4.30
2022-08-26T16:53:27.010Z,4.50
2022-08-26T16:55:57.109Z,4.90
2022-08-26T17:00:56.134Z,5.15
2022-08-26T17:03:27.932Z,4.78
2022-08-26T17:05:57.254Z,5.18
2022-08-26T17:08:28.791Z,5.78
2022-08-26T17:11:01.455Z,6.38
2022-08-26T17:13:35.254Z,6.32
2022-08-26T17:16:06.795Z,6.28
2022-08-26T17:18:38.989Z,6.47
2022-08-26T17:21:11.008Z,6.28
2022-08-26T17:23:42.510Z,5.95
2022-08-26T17:26:13.377Z,6.22
2022-08-26T17:28:43.590Z,6.45
2022-08-26T17:31:14.548Z,6.70
2022-08-26T17:33:50.282Z,6.75
2022-08-26T17:36:27.967Z,6.35
2022-08-26T17:39:00.061Z,5.88
2022-08-26T17:41:30.077Z,6.57
2022-08-26T17:44:00.029Z,6.63
2022-08-26T17:46:29.562Z,7.38
2022-08-26T17:49:00.638Z,6.40
2022-08-26T17:51:30.422Z,6.57
2022-08-26T17:53:59.826Z,6.93
2022-08-26T17:56:31.021Z,6.88
2022-08-26T17:59:02.412Z,7.55
2022-08-26T18:01:33.699Z,6.32
2022-08-26T18:04:05.661Z,7.68
2022-08-26T18:06:35.857Z,6.88
2022-08-26T18:09:07.288Z,6.68
2022-08-26T18:11:36.676Z,8.23
2022-08-26T18:14:06.409Z,7.65
2022-08-26T18:16:38.657Z,8.30
2022-08-26T18:19:10.368Z,7.65
2022-08-26T18:21:40.116Z,7.90
2022-08-26T18:24:13.819Z,9.10
2022-08-26T18:26:49.120Z,9.23
2022-08-26T18:29:19.810Z,8.13
2022-08-26T18:31:50.167Z,7.72
2022-08-26T18:34:21.457Z,8.00
2022-08-26T18:36:53.670Z,8.82
2022-08-26T18:39:25.345Z,10.25
2022-08-26T18:41:55.357Z,8.82
2022-08-26T18:44:27.581Z,8.95
2022-08-26T18:46:57.504Z,8.85
2022-08-26T18:49:28.425Z,9.30
2022-08-26T18:51:58.357Z,7.78
2022-08-26T18:54:27.861Z,9.02
2022-08-26T18:56:57.216Z,10.27
2022-08-26T18:59:30.346Z,11.05
2022-08-26T19:02:00.592Z,9.85
2022-08-26T19:04:32.304Z,9.70
2022-08-26T19:07:01.709Z,9.55
2022-08-26T19:09:31.988Z,9.80
2022-08-26T19:12:01.964Z,10.57
2022-08-26T19:17:01.774Z,9.43
2022-08-26T19:19:32.805Z,10.02
2022-08-26T19:22:02.553Z,9.95
2022-08-26T19:24:32.524Z,10.30
2022-08-26T19:27:03.493Z,10.15
2022-08-26T19:29:35.544Z,9.80
2022-08-26T19:32:06.106Z,10.18
2022-08-26T19:34:38.157Z,9.80
2022-08-26T19:37:07.644Z,10.18
2022-08-26T19:39:37.777Z,10.82
2022-08-26T19:42:07.593Z,10.53
2022-08-26T19:44:54.414Z,9.60
2022-08-26T19:47:25.643Z,10.65
2022-08-26T19:49:57.646Z,9.77
2022-08-26T19:52:30.154Z,11.27
2022-08-26T19:54:59.789Z,10.52
2022-08-26T19:57:29.990Z,10.77
2022-08-26T20:00:01.314Z,11.53
2022-08-26T20:02:32.301Z,10.05
2022-08-26T20:05:03.732Z,10.63
2022-08-26T20:07:34.145Z,10.05
2022-08-26T20:10:03.711Z,11.38
2022-08-26T20:12:34.246Z,9.97
2022-08-26T20:15:05.411Z,10.65
2022-08-26T20:17:35.257Z,11.15
2022-08-26T20:20:33.670Z,8.93
2022-08-26T20:23:05.531Z,10.10
2022-08-26T20:25:35.961Z,10.02
2022-08-26T20:28:05.814Z,11.07
2022-08-26T20:30:35.316Z,10.25
2022-08-26T20:33:05.500Z,9.50
2022-08-26T20:35:36.507Z,9.18
2022-08-26T20:38:06.449Z,9.80
2022-08-26T20:40:35.975Z,9.18
2022-08-26T20:43:06.492Z,9.35
2022-08-26T20:45:36.408Z,10.05
2022-08-26T20:48:06.385Z,9.80
2022-08-26T20:50:38.406Z,9.05
2022-08-26T20:53:08.646Z,8.98
2022-08-26T20:55:38.285Z,8.40
2022-08-26T20:58:07.802Z,8.18
2022-08-26T21:00:40.126Z,8.70
2022-08-26T21:03:09.580Z,8.43
2022-08-26T21:05:41.188Z,8.70
2022-08-26T21:08:12.157Z,9.32
2022-08-26T21:10:42.105Z,8.98
2022-08-26T21:13:11.921Z,8.20
2022-08-26T21:15:41.296Z,7.80
2022-08-26T21:18:11.579Z,7.65
2022-08-26T21:20:42.657Z,6.85
2022-08-26T21:23:13.883Z,8.10
2022-08-26T21:25:43.198Z,7.80
2022-08-26T21:28:13.221Z,9.02
2022-08-26T21:30:42.993Z,7.75
2022-08-26T21:33:12.605Z,7.93
2022-08-26T21:35:44.164Z,6.95
2022-08-26T21:38:13.593Z,8.07
2022-08-26T21:40:43.513Z,7.07
2022-08-26T21:43:24.422Z,8.52
2022-08-26T21:46:07.781Z,7.33
2022-08-26T21:48:37.309Z,7.57
2022-08-26T21:51:09.565Z,7.85
2022-08-26T21:53:39.615Z,6.82
2022-08-26T21:56:12.081Z,7.60
2022-08-26T21:58:41.779Z,6.68
2022-08-26T22:01:12.269Z,6.32
2022-08-26T22:03:47.642Z,7.13
2022-08-26T22:06:21.037Z,6.88
2022-08-26T22:08:50.548Z,6.60
2022-08-26T22:11:21.235Z,6.85
2022-08-26T22:13:51.341Z,7.57
2022-08-26T22:16:22.382Z,8.77
2022-08-26T22:18:51.853Z,7.00
2022-08-26T22:21:25.299Z,7.10
2022-08-26T22:23:57.996Z,7.00
2022-08-26T22:26:30.408Z,6.22
2022-08-26T22:29:00.985Z,6.00
2022-08-26T22:31:35.282Z,5.55
2022-08-26T22:34:10.141Z,6.75
2022-08-26T22:36:44.845Z,7.13
2022-08-26T22:39:15.405Z,7.25
2022-08-26T22:41:48.946Z,6.70
2022-08-26T22:44:19.279Z,6.57
2022-08-26T22:46:50.228Z,6.47
2022-08-26T22:49:19.941Z,8.20
2022-08-26T22:54:23.506Z,6.82
2022-08-26T22:56:53.711Z,7.05
2022-08-26T22:59:23.176Z,7.18
2022-08-26T23:01:52.822Z,7.50
2022-08-26T23:04:22.710Z,7.65
2022-08-26T23:06:53.601Z,8.07
2022-08-26T23:09:23.196Z,8.52
2022-08-26T23:11:52.532Z,7.22
2022-08-26T23:14:21.982Z,8.57
2022-08-26T23:16:52.172Z,8.45
2022-08-26T23:19:23.886Z,8.05
2022-08-26T23:21:56.671Z,7.13
2022-08-26T23:24:26.141Z,7.82
2022-08-26T23:26:55.910Z,7.50
2022-08-26T23:29:25.688Z,7.28
2022-08-26T23:31:57.407Z,7.60
2022-08-26T23:34:43.758Z,6.57
2022-08-26T23:37:17.076Z,7.38
2022-08-26T23:39:46.771Z,6.95
2022-08-26T23:42:16.166Z,7.63
2022-08-26T23:44:46.978Z,7.65
2022-08-26T23:47:16.748Z,7.82
2022-08-26T23:49:46.287Z,7.05
2022-08-26T23:52:34.731Z,6.65
2022-08-26T23:55:04.107Z,7.43
2022-08-26T23:57:35.483Z,7.63
